Watts, Pennsylvania
Current Conditions -  °F | °C
As of 10:56 PM on Wednesday 17 Dec 2014 (Local Time) from KCXY Reporting Station
Overcast Overcast  
Wind Chill: 28°   Ceiling: 4400
Heat Index: 38°   Visibility: 10mi
Dew Point: 21°   Wind: 20mph
Humidity: 51%   Direction: 310°NW
Pressure: 30.03"   Gusts: 30mph
Location:  40.4048°N, 77.0696°W
Report Text: KCXY 180356Z AUTO 31017G26KT 10SM OVC044 03/M06 A3003 RMK AO2 PK WND 31028/0344 SLP174 T00331061
Loading
Personal Weather Stations






























Interactive Weather Map New forecast layout! Learn more

10-Day Weather Forecast

Advertisements
Track Severe Weather on mobile